sensor_id;sensor_type;location;lat;lon;timestamp;temperature;humidity
23609;DHT22;11982;50.810;4.442;2022-11-14T00:02:10;5.50;99.90
23609;DHT22;11982;50.810;4.442;2022-11-14T00:04:36;5.50;99.90
23609;DHT22;11982;50.810;4.442;2022-11-14T00:07:01;5.30;99.90
23609;DHT22;11982;50.810;4.442;2022-11-14T00:09:27;5.30;99.90
23609;DHT22;11982;50.810;4.442;2022-11-14T00:11:54;5.40;99.90
23609;DHT22;11982;50.810;4.442;2022-11-14T00:14:20;5.50;99.90
23609;DHT22;11982;50.810;4.442;2022-11-14T00:16:46;5.40;99.90
23609;DHT22;11982;50.810;4.442;2022-11-14T00:19:11;5.30;99.90
23609;DHT22;11982;50.810;4.442;2022-11-14T00:21:37;5.30;99.90
23609;DHT22;11982;50.810;4.442;2022-11-14T00:24:03;5.30;99.90
23609;DHT22;11982;50.810;4.442;2022-11-14T00:26:29;5.40;99.90
23609;DHT22;11982;50.810;4.442;2022-11-14T00:28:54;5.20;99.90
23609;DHT22;11982;50.810;4.442;2022-11-14T00:31:20;5.20;99.90
23609;DHT22;11982;50.810;4.442;2022-11-14T00:33:45;5.30;99.90
23609;DHT22;11982;50.810;4.442;2022-11-14T00:36:11;5.30;99.90
23609;DHT22;11982;50.810;4.442;2022-11-14T00:38:37;5.30;99.90
23609;DHT22;11982;50.810;4.442;2022-11-14T00:41:02;5.30;99.90
23609;DHT22;11982;50.810;4.442;2022-11-14T00:43:28;5.30;99.90
23609;DHT22;11982;50.810;4.442;2022-11-14T00:45:53;5.30;99.90
23609;DHT22;11982;50.810;4.442;2022-11-14T00:48:19;5.20;99.90
23609;DHT22;11982;50.810;4.442;2022-11-14T00:50:45;5.00;99.90
23609;DHT22;11982;50.810;4.442;2022-11-14T00:53:12;4.80;99.90
23609;DHT22;11982;50.810;4.442;2022-11-14T00:55:37;4.80;99.90
23609;DHT22;11982;50.810;4.442;2022-11-14T00:58:03;4.80;99.90
23609;DHT22;11982;50.810;4.442;2022-11-14T01:00:28;4.90;99.90
23609;DHT22;11982;50.810;4.442;2022-11-14T01:02:54;5.00;99.90
23609;DHT22;11982;50.810;4.442;2022-11-14T01:05:22;5.10;99.90
23609;DHT22;11982;50.810;4.442;2022-11-14T01:07:48;5.10;99.90
23609;DHT22;11982;50.810;4.442;2022-11-14T01:10:15;5.10;99.90
23609;DHT22;11982;50.810;4.442;2022-11-14T01:12:40;5.00;99.90
23609;DHT22;11982;50.810;4.442;2022-11-14T01:15:06;5.00;99.90
23609;DHT22;11982;50.810;4.442;2022-11-14T01:17:32;5.00;99.90
23609;DHT22;11982;50.810;4.442;2022-11-14T01:19:58;4.90;99.90
23609;DHT22;11982;50.810;4.442;2022-11-14T01:22:23;4.70;99.90
23609;DHT22;11982;50.810;4.442;2022-11-14T01:24:49;4.70;99.90
23609;DHT22;11982;50.810;4.442;2022-11-14T01:27:15;4.70;99.90
23609;DHT22;11982;50.810;4.442;2022-11-14T01:29:41;4.70;99.90
23609;DHT22;11982;50.810;4.442;2022-11-14T01:32:06;4.70;99.90
23609;DHT22;11982;50.810;4.442;2022-11-14T01:34:32;4.80;99.90
23609;DHT22;11982;50.810;4.442;2022-11-14T01:36:58;4.90;99.90
23609;DHT22;11982;50.810;4.442;2022-11-14T01:39:25;4.80;99.90
23609;DHT22;11982;50.810;4.442;2022-11-14T01:41:51;4.70;99.90
23609;DHT22;11982;50.810;4.442;2022-11-14T01:47:14;4.80;99.90
23609;DHT22;11982;50.810;4.442;2022-11-14T01:49:44;4.80;99.90
23609;DHT22;11982;50.810;4.442;2022-11-14T01:52:31;4.60;99.90
23609;DHT22;11982;50.810;4.442;2022-11-14T01:55:01;4.60;99.90
23609;DHT22;11982;50.810;4.442;2022-11-14T01:57:37;4.60;99.90
23609;DHT22;11982;50.810;4.442;2022-11-14T02:00:08;4.60;99.90
23609;DHT22;11982;50.810;4.442;2022-11-14T02:02:34;4.70;99.90
23609;DHT22;11982;50.810;4.442;2022-11-14T02:05:04;4.70;99.90
23609;DHT22;11982;50.810;4.442;2022-11-14T02:07:33;4.80;99.90
23609;DHT22;11982;50.810;4.442;2022-11-14T02:10:03;4.80;99.90
23609;DHT22;11982;50.810;4.442;2022-11-14T02:12:29;4.70;99.90
23609;DHT22;11982;50.810;4.442;2022-11-14T02:14:56;4.70;99.90
23609;DHT22;11982;50.810;4.442;2022-11-14T02:17:24;4.60;99.90
23609;DHT22;11982;50.810;4.442;2022-11-14T02:20:17;4.60;99.90
23609;DHT22;11982;50.810;4.442;2022-11-14T02:22:41;4.60;99.90
23609;DHT22;11982;50.810;4.442;2022-11-14T02:25:08;4.80;99.90
23609;DHT22;11982;50.810;4.442;2022-11-14T02:27:35;4.90;99.90
23609;DHT22;11982;50.810;4.442;2022-11-14T02:30:06;4.80;99.90
23609;DHT22;11982;50.810;4.442;2022-11-14T02:32:32;4.80;99.90
23609;DHT22;11982;50.810;4.442;2022-11-14T02:34:58;4.90;99.90
23609;DHT22;11982;50.810;4.442;2022-11-14T02:37:23;4.80;99.90
23609;DHT22;11982;50.810;4.442;2022-11-14T02:39:49;4.70;99.90
23609;DHT22;11982;50.810;4.442;2022-11-14T02:42:15;4.70;99.90
23609;DHT22;11982;50.810;4.442;2022-11-14T02:44:40;4.70;99.90
23609;DHT22;11982;50.810;4.442;2022-11-14T02:47:06;4.50;99.90
23609;DHT22;11982;50.810;4.442;2022-11-14T02:49:31;4.40;99.90
23609;DHT22;11982;50.810;4.442;2022-11-14T02:51:57;4.40;99.90
23609;DHT22;11982;50.810;4.442;2022-11-14T02:54:22;4.40;99.90
23609;DHT22;11982;50.810;4.442;2022-11-14T02:56:48;4.40;99.90
23609;DHT22;11982;50.810;4.442;2022-11-14T02:59:14;4.50;99.90
23609;DHT22;11982;50.810;4.442;2022-11-14T03:01:39;4.50;99.90
23609;DHT22;11982;50.810;4.442;2022-11-14T03:04:05;4.50;99.90
23609;DHT22;11982;50.810;4.442;2022-11-14T03:06:30;4.60;99.90
23609;DHT22;11982;50.810;4.442;2022-11-14T03:08:56;4.50;99.90
23609;DHT22;11982;50.810;4.442;2022-11-14T03:11:21;4.60;99.90
23609;DHT22;11982;50.810;4.442;2022-11-14T03:13:47;4.60;99.90
23609;DHT22;11982;50.810;4.442;2022-11-14T03:16:13;4.50;99.90
23609;DHT22;11982;50.810;4.442;2022-11-14T03:18:39;4.60;99.90
23609;DHT22;11982;50.810;4.442;2022-11-14T03:21:11;4.50;99.90
23609;DHT22;11982;50.810;4.442;2022-11-14T03:23:37;4.50;99.90
23609;DHT22;11982;50.810;4.442;2022-11-14T03:26:05;4.40;99.90
23609;DHT22;11982;50.810;4.442;2022-11-14T03:28:31;4.30;99.90
23609;DHT22;11982;50.810;4.442;2022-11-14T03:30:57;4.20;99.90
23609;DHT22;11982;50.810;4.442;2022-11-14T03:33:23;4.20;99.90
23609;DHT22;11982;50.810;4.442;2022-11-14T03:35:50;4.30;99.90
23609;DHT22;11982;50.810;4.442;2022-11-14T03:38:16;4.30;99.90
23609;DHT22;11982;50.810;4.442;2022-11-14T03:40:42;4.40;99.90
23609;DHT22;11982;50.810;4.442;2022-11-14T03:43:08;4.30;99.90
23609;DHT22;11982;50.810;4.442;2022-11-14T03:45:36;4.30;99.90
23609;DHT22;11982;50.810;4.442;2022-11-14T03:48:02;4.30;99.90
23609;DHT22;11982;50.810;4.442;2022-11-14T03:50:27;4.30;99.90
23609;DHT22;11982;50.810;4.442;2022-11-14T03:52:53;4.20;99.90
23609;DHT22;11982;50.810;4.442;2022-11-14T03:55:18;4.10;99.90
23609;DHT22;11982;50.810;4.442;2022-11-14T03:57:44;4.10;99.90
23609;DHT22;11982;50.810;4.442;2022-11-14T04:00:10;4.00;99.90
23609;DHT22;11982;50.810;4.442;2022-11-14T04:02:36;3.90;99.90
23609;DHT22;11982;50.810;4.442;2022-11-14T04:05:01;3.70;99.90
23609;DHT22;11982;50.810;4.442;2022-11-14T04:07:27;3.70;99.90
23609;DHT22;11982;50.810;4.442;2022-11-14T04:09:54;3.70;99.90
23609;DHT22;11982;50.810;4.442;2022-11-14T04:12:19;3.70;99.90
23609;DHT22;11982;50.810;4.442;2022-11-14T04:14:45;3.80;99.90
23609;DHT22;11982;50.810;4.442;2022-11-14T04:17:10;3.90;99.90
23609;DHT22;11982;50.810;4.442;2022-11-14T04:19:36;4.00;99.90
23609;DHT22;11982;50.810;4.442;2022-11-14T04:22:01;3.90;99.90
23609;DHT22;11982;50.810;4.442;2022-11-14T04:24:27;3.80;99.90
23609;DHT22;11982;50.810;4.442;2022-11-14T04:26:53;3.80;99.90
23609;DHT22;11982;50.810;4.442;2022-11-14T04:29:19;3.90;99.90
23609;DHT22;11982;50.810;4.442;2022-11-14T04:31:44;4.00;99.90
23609;DHT22;11982;50.810;4.442;2022-11-14T04:34:10;4.00;99.90
23609;DHT22;11982;50.810;4.442;2022-11-14T04:36:35;3.90;99.90
23609;DHT22;11982;50.810;4.442;2022-11-14T04:39:01;3.90;99.90
23609;DHT22;11982;50.810;4.442;2022-11-14T04:41:27;3.90;99.90
23609;DHT22;11982;50.810;4.442;2022-11-14T04:43:52;3.80;99.90
23609;DHT22;11982;50.810;4.442;2022-11-14T04:46:18;3.80;99.90
23609;DHT22;11982;50.810;4.442;2022-11-14T04:48:43;3.90;99.90
23609;DHT22;11982;50.810;4.442;2022-11-14T04:51:09;4.00;99.90
23609;DHT22;11982;50.810;4.442;2022-11-14T04:53:35;3.90;99.90
23609;DHT22;11982;50.810;4.442;2022-11-14T04:56:00;3.80;99.90
23609;DHT22;11982;50.810;4.442;2022-11-14T04:58:26;3.70;99.90
23609;DHT22;11982;50.810;4.442;2022-11-14T05:00:52;3.60;99.90
23609;DHT22;11982;50.810;4.442;2022-11-14T05:03:17;3.70;99.90
23609;DHT22;11982;50.810;4.442;2022-11-14T05:05:43;3.70;99.90
23609;DHT22;11982;50.810;4.442;2022-11-14T05:08:09;3.70;99.90
23609;DHT22;11982;50.810;4.442;2022-11-14T05:10:34;3.70;99.90
23609;DHT22;11982;50.810;4.442;2022-11-14T05:13:00;3.60;99.90
23609;DHT22;11982;50.810;4.442;2022-11-14T05:15:26;3.50;99.90
23609;DHT22;11982;50.810;4.442;2022-11-14T05:17:51;3.60;99.90
23609;DHT22;11982;50.810;4.442;2022-11-14T05:20:17;3.70;99.90
23609;DHT22;11982;50.810;4.442;2022-11-14T05:22:42;3.80;99.90
23609;DHT22;11982;50.810;4.442;2022-11-14T05:25:08;3.80;99.90
23609;DHT22;11982;50.810;4.442;2022-11-14T05:27:34;3.80;99.90
23609;DHT22;11982;50.810;4.442;2022-11-14T05:30:00;3.70;99.90
23609;DHT22;11982;50.810;4.442;2022-11-14T05:32:25;3.50;99.90
23609;DHT22;11982;50.810;4.442;2022-11-14T05:34:51;3.50;99.90
23609;DHT22;11982;50.810;4.442;2022-11-14T05:37:16;3.50;99.90
23609;DHT22;11982;50.810;4.442;2022-11-14T05:39:42;3.50;99.90
23609;DHT22;11982;50.810;4.442;2022-11-14T05:42:07;3.40;99.90
23609;DHT22;11982;50.810;4.442;2022-11-14T05:44:33;3.50;99.90
23609;DHT22;11982;50.810;4.442;2022-11-14T05:46:58;3.60;99.90
23609;DHT22;11982;50.810;4.442;2022-11-14T05:49:24;3.50;99.90
23609;DHT22;11982;50.810;4.442;2022-11-14T05:51:50;3.30;99.90
23609;DHT22;11982;50.810;4.442;2022-11-14T05:54:15;3.20;99.90
23609;DHT22;11982;50.810;4.442;2022-11-14T05:56:41;3.20;99.90
23609;DHT22;11982;50.810;4.442;2022-11-14T05:59:06;3.20;99.90
23609;DHT22;11982;50.810;4.442;2022-11-14T06:01:32;3.30;99.90
23609;DHT22;11982;50.810;4.442;2022-11-14T06:03:57;3.40;99.90
23609;DHT22;11982;50.810;4.442;2022-11-14T06:06:23;3.50;99.90
23609;DHT22;11982;50.810;4.442;2022-11-14T06:08:49;3.40;99.90
23609;DHT22;11982;50.810;4.442;2022-11-14T06:11:19;3.40;99.90
23609;DHT22;11982;50.810;4.442;2022-11-14T06:13:45;3.40;99.90
23609;DHT22;11982;50.810;4.442;2022-11-14T06:16:18;3.30;99.90
23609;DHT22;11982;50.810;4.442;2022-11-14T06:18:45;3.30;99.90
23609;DHT22;11982;50.810;4.442;2022-11-14T06:21:16;3.30;99.90
23609;DHT22;11982;50.810;4.442;2022-11-14T06:23:42;3.20;99.90
23609;DHT22;11982;50.810;4.442;2022-11-14T06:26:25;3.10;99.90
23609;DHT22;11982;50.810;4.442;2022-11-14T06:28:52;3.20;99.90
23609;DHT22;11982;50.810;4.442;2022-11-14T06:31:19;3.20;99.90
23609;DHT22;11982;50.810;4.442;2022-11-14T06:33:45;3.10;99.90
23609;DHT22;11982;50.810;4.442;2022-11-14T06:36:11;3.10;99.90
23609;DHT22;11982;50.810;4.442;2022-11-14T06:38:38;3.20;99.90
23609;DHT22;11982;50.810;4.442;2022-11-14T06:41:11;3.20;99.90
23609;DHT22;11982;50.810;4.442;2022-11-14T06:43:38;3.30;99.90
23609;DHT22;11982;50.810;4.442;2022-11-14T06:46:05;3.30;99.90
23609;DHT22;11982;50.810;4.442;2022-11-14T06:48:32;3.20;99.90
23609;DHT22;11982;50.810;4.442;2022-11-14T06:50:58;3.20;99.90
23609;DHT22;11982;50.810;4.442;2022-11-14T06:53:24;3.20;99.90
23609;DHT22;11982;50.810;4.442;2022-11-14T06:55:57;3.10;99.90
23609;DHT22;11982;50.810;4.442;2022-11-14T06:58:28;3.10;99.90
23609;DHT22;11982;50.810;4.442;2022-11-14T07:00:54;3.10;99.90
23609;DHT22;11982;50.810;4.442;2022-11-14T07:03:20;3.10;99.90
23609;DHT22;11982;50.810;4.442;2022-11-14T07:05:46;3.10;99.90
23609;DHT22;11982;50.810;4.442;2022-11-14T07:08:12;3.00;99.90
23609;DHT22;11982;50.810;4.442;2022-11-14T07:10:38;3.10;99.90
23609;DHT22;11982;50.810;4.442;2022-11-14T07:13:03;3.20;99.90
23609;DHT22;11982;50.810;4.442;2022-11-14T07:15:29;3.30;99.90
23609;DHT22;11982;50.810;4.442;2022-11-14T07:17:54;3.30;99.90
23609;DHT22;11982;50.810;4.442;2022-11-14T07:20:20;3.40;99.90
23609;DHT22;11982;50.810;4.442;2022-11-14T07:22:46;3.50;99.90
23609;DHT22;11982;50.810;4.442;2022-11-14T07:25:12;3.60;99.90
23609;DHT22;11982;50.810;4.442;2022-11-14T07:27:38;3.70;99.90
23609;DHT22;11982;50.810;4.442;2022-11-14T07:30:04;3.60;99.90
23609;DHT22;11982;50.810;4.442;2022-11-14T07:32:30;3.50;99.90
23609;DHT22;11982;50.810;4.442;2022-11-14T07:34:56;3.60;99.90
23609;DHT22;11982;50.810;4.442;2022-11-14T07:37:21;3.80;99.90
23609;DHT22;11982;50.810;4.442;2022-11-14T07:39:47;3.80;99.90
23609;DHT22;11982;50.810;4.442;2022-11-14T07:42:12;3.80;99.90
23609;DHT22;11982;50.810;4.442;2022-11-14T07:44:38;3.90;99.90
23609;DHT22;11982;50.810;4.442;2022-11-14T07:47:03;3.90;99.90
23609;DHT22;11982;50.810;4.442;2022-11-14T07:49:29;3.90;99.90
23609;DHT22;11982;50.810;4.442;2022-11-14T07:51:55;4.00;99.90
23609;DHT22;11982;50.810;4.442;2022-11-14T07:54:20;4.10;99.90
23609;DHT22;11982;50.810;4.442;2022-11-14T07:56:46;4.10;99.90
23609;DHT22;11982;50.810;4.442;2022-11-14T07:59:11;4.30;99.90
23609;DHT22;11982;50.810;4.442;2022-11-14T08:01:37;4.20;99.90
23609;DHT22;11982;50.810;4.442;2022-11-14T08:04:03;4.10;99.90
23609;DHT22;11982;50.810;4.442;2022-11-14T08:06:28;4.20;99.90
23609;DHT22;11982;50.810;4.442;2022-11-14T08:08:54;4.20;99.90
23609;DHT22;11982;50.810;4.442;2022-11-14T08:11:20;4.20;99.90
23609;DHT22;11982;50.810;4.442;2022-11-14T08:14:05;4.30;99.90
23609;DHT22;11982;50.810;4.442;2022-11-14T08:16:31;4.40;99.90
23609;DHT22;11982;50.810;4.442;2022-11-14T08:18:57;4.50;99.90
23609;DHT22;11982;50.810;4.442;2022-11-14T08:21:22;4.60;99.90
23609;DHT22;11982;50.810;4.442;2022-11-14T08:23:48;4.70;99.90
23609;DHT22;11982;50.810;4.442;2022-11-14T08:26:13;4.90;99.90
23609;DHT22;11982;50.810;4.442;2022-11-14T08:28:39;5.10;99.90
23609;DHT22;11982;50.810;4.442;2022-11-14T08:31:04;5.20;99.90
23609;DHT22;11982;50.810;4.442;2022-11-14T08:33:30;5.40;99.90
23609;DHT22;11982;50.810;4.442;2022-11-14T08:36:00;5.50;99.90
23609;DHT22;11982;50.810;4.442;2022-11-14T08:38:26;5.60;99.90
23609;DHT22;11982;50.810;4.442;2022-11-14T08:40:51;5.70;99.90
23609;DHT22;11982;50.810;4.442;2022-11-14T08:43:17;5.70;99.90
23609;DHT22;11982;50.810;4.442;2022-11-14T08:45:43;5.90;99.90
23609;DHT22;11982;50.810;4.442;2022-11-14T08:48:08;5.80;99.90
23609;DHT22;11982;50.810;4.442;2022-11-14T08:50:34;5.60;99.90
23609;DHT22;11982;50.810;4.442;2022-11-14T08:52:59;5.80;99.90
23609;DHT22;11982;50.810;4.442;2022-11-14T08:55:25;6.00;99.90
23609;DHT22;11982;50.810;4.442;2022-11-14T08:57:52;6.20;99.90
23609;DHT22;11982;50.810;4.442;2022-11-14T09:00:18;6.30;99.90
23609;DHT22;11982;50.810;4.442;2022-11-14T09:02:43;6.30;99.90
23609;DHT22;11982;50.810;4.442;2022-11-14T09:05:09;6.10;99.90
23609;DHT22;11982;50.810;4.442;2022-11-14T09:07:35;6.00;99.90
23609;DHT22;11982;50.810;4.442;2022-11-14T09:10:01;6.00;99.90
23609;DHT22;11982;50.810;4.442;2022-11-14T09:12:26;6.00;99.90
23609;DHT22;11982;50.810;4.442;2022-11-14T09:14:52;6.10;99.90
23609;DHT22;11982;50.810;4.442;2022-11-14T09:17:17;6.00;99.90
23609;DHT22;11982;50.810;4.442;2022-11-14T09:19:43;6.10;99.90
23609;DHT22;11982;50.810;4.442;2022-11-14T09:22:09;6.20;99.90
23609;DHT22;11982;50.810;4.442;2022-11-14T09:24:34;6.20;99.90
23609;DHT22;11982;50.810;4.442;2022-11-14T09:27:00;6.20;99.90
23609;DHT22;11982;50.810;4.442;2022-11-14T09:29:25;6.10;99.90
23609;DHT22;11982;50.810;4.442;2022-11-14T09:31:51;6.10;99.90
23609;DHT22;11982;50.810;4.442;2022-11-14T09:34:17;6.30;99.90
23609;DHT22;11982;50.810;4.442;2022-11-14T09:36:43;6.50;99.90
23609;DHT22;11982;50.810;4.442;2022-11-14T09:39:08;6.40;99.90
23609;DHT22;11982;50.810;4.442;2022-11-14T09:44:47;6.50;99.90
23609;DHT22;11982;50.810;4.442;2022-11-14T09:47:24;6.50;99.90
23609;DHT22;11982;50.810;4.442;2022-11-14T09:49:59;6.40;99.90
23609;DHT22;11982;50.810;4.442;2022-11-14T09:52:39;6.40;99.90
23609;DHT22;11982;50.810;4.442;2022-11-14T09:57:39;6.40;99.90
23609;DHT22;11982;50.810;4.442;2022-11-14T10:00:13;6.50;99.90
23609;DHT22;11982;50.810;4.442;2022-11-14T10:05:57;6.30;99.90
23609;DHT22;11982;50.810;4.442;2022-11-14T10:09:02;6.30;99.90
23609;DHT22;11982;50.810;4.442;2022-11-14T10:11:58;6.30;99.90
23609;DHT22;11982;50.810;4.442;2022-11-14T10:14:35;6.50;99.90
23609;DHT22;11982;50.810;4.442;2022-11-14T10:17:43;6.50;99.90
23609;DHT22;11982;50.810;4.442;2022-11-14T10:20:23;6.50;99.90
23609;DHT22;11982;50.810;4.442;2022-11-14T10:23:04;6.60;99.90
23609;DHT22;11982;50.810;4.442;2022-11-14T10:26:11;6.60;99.90
23609;DHT22;11982;50.810;4.442;2022-11-14T10:34:08;6.60;99.90
23609;DHT22;11982;50.810;4.442;2022-11-14T10:39:45;6.60;99.90
23609;DHT22;11982;50.810;4.442;2022-11-14T10:42:16;6.60;99.90
23609;DHT22;11982;50.810;4.442;2022-11-14T10:45:06;6.80;99.90
23609;DHT22;11982;50.810;4.442;2022-11-14T10:47:40;6.90;99.90
23609;DHT22;11982;50.810;4.442;2022-11-14T10:50:18;7.00;99.90
23609;DHT22;11982;50.810;4.442;2022-11-14T10:52:45;7.10;99.90
23609;DHT22;11982;50.810;4.442;2022-11-14T10:55:17;7.20;99.90
23609;DHT22;11982;50.810;4.442;2022-11-14T10:57:46;7.40;99.90
23609;DHT22;11982;50.810;4.442;2022-11-14T11:00:19;7.40;99.90
23609;DHT22;11982;50.810;4.442;2022-11-14T11:02:56;7.50;99.90
23609;DHT22;11982;50.810;4.442;2022-11-14T11:05:26;7.40;99.90
23609;DHT22;11982;50.810;4.442;2022-11-14T11:07:52;7.60;99.90
23609;DHT22;11982;50.810;4.442;2022-11-14T11:10:41;7.60;99.90
23609;DHT22;11982;50.810;4.442;2022-11-14T11:13:33;7.50;99.90
23609;DHT22;11982;50.810;4.442;2022-11-14T11:16:01;7.50;99.90
23609;DHT22;11982;50.810;4.442;2022-11-14T11:21:07;7.40;99.90
23609;DHT22;11982;50.810;4.442;2022-11-14T11:23:33;7.20;99.90
23609;DHT22;11982;50.810;4.442;2022-11-14T11:26:27;7.20;99.90
23609;DHT22;11982;50.810;4.442;2022-11-14T11:29:22;7.10;99.90
23609;DHT22;11982;50.810;4.442;2022-11-14T11:31:56;7.10;99.90
23609;DHT22;11982;50.810;4.442;2022-11-14T11:34:31;7.00;99.90
23609;DHT22;11982;50.810;4.442;2022-11-14T11:39:40;7.20;99.90
23609;DHT22;11982;50.810;4.442;2022-11-14T11:42:13;7.10;99.90
23609;DHT22;11982;50.810;4.442;2022-11-14T11:44:45;7.10;99.90
23609;DHT22;11982;50.810;4.442;2022-11-14T11:47:16;7.10;99.90
23609;DHT22;11982;50.810;4.442;2022-11-14T11:49:50;6.90;99.90
23609;DHT22;11982;50.810;4.442;2022-11-14T11:52:39;6.60;99.90
23609;DHT22;11982;50.810;4.442;2022-11-14T11:57:42;6.40;99.90
23609;DHT22;11982;50.810;4.442;2022-11-14T12:00:19;6.50;99.90
23609;DHT22;11982;50.810;4.442;2022-11-14T12:02:48;6.70;99.90
23609;DHT22;11982;50.810;4.442;2022-11-14T12:08:25;6.70;99.90
23609;DHT22;11982;50.810;4.442;2022-11-14T12:10:55;6.70;99.90
23609;DHT22;11982;50.810;4.442;2022-11-14T12:16:27;6.80;99.90
23609;DHT22;11982;50.810;4.442;2022-11-14T12:27:28;6.60;99.90
23609;DHT22;11982;50.810;4.442;2022-11-14T12:30:14;6.70;99.90
23609;DHT22;11982;50.810;4.442;2022-11-14T12:33:00;7.10;99.90
23609;DHT22;11982;50.810;4.442;2022-11-14T12:35:30;7.20;99.90
23609;DHT22;11982;50.810;4.442;2022-11-14T12:37:57;7.20;99.90
23609;DHT22;11982;50.810;4.442;2022-11-14T12:42:55;7.10;99.90
23609;DHT22;11982;50.810;4.442;2022-11-14T12:48:29;7.20;99.90
23609;DHT22;11982;50.810;4.442;2022-11-14T12:50:56;7.30;99.90
23609;DHT22;11982;50.810;4.442;2022-11-14T13:12:30;7.10;99.90
23609;DHT22;11982;50.810;4.442;2022-11-14T13:18:14;7.20;99.90
23609;DHT22;11982;50.810;4.442;2022-11-14T13:21:04;7.00;99.90
23609;DHT22;11982;50.810;4.442;2022-11-14T13:28:47;7.10;99.90
23609;DHT22;11982;50.810;4.442;2022-11-14T13:33:52;6.80;99.90
23609;DHT22;11982;50.810;4.442;2022-11-14T13:36:47;6.70;99.90
23609;DHT22;11982;50.810;4.442;2022-11-14T13:39:58;6.70;99.90
23609;DHT22;11982;50.810;4.442;2022-11-14T13:42:58;6.80;99.90
23609;DHT22;11982;50.810;4.442;2022-11-14T13:51:04;7.20;99.90
23609;DHT22;11982;50.810;4.442;2022-11-14T13:53:31;7.40;99.90
23609;DHT22;11982;50.810;4.442;2022-11-14T13:56:04;7.40;99.90
23609;DHT22;11982;50.810;4.442;2022-11-14T14:04:00;7.50;99.90
23609;DHT22;11982;50.810;4.442;2022-11-14T14:09:20;7.40;99.90
23609;DHT22;11982;50.810;4.442;2022-11-14T14:22:09;7.20;99.90
23609;DHT22;11982;50.810;4.442;2022-11-14T14:30:17;7.30;99.90
23609;DHT22;11982;50.810;4.442;2022-11-14T14:33:00;7.30;99.90
23609;DHT22;11982;50.810;4.442;2022-11-14T14:35:28;7.50;99.90
23609;DHT22;11982;50.810;4.442;2022-11-14T14:37:55;7.60;99.90
23609;DHT22;11982;50.810;4.442;2022-11-14T14:40:30;7.70;99.90
23609;DHT22;11982;50.810;4.442;2022-11-14T14:42:59;7.60;99.90
23609;DHT22;11982;50.810;4.442;2022-11-14T14:45:26;7.60;99.90
23609;DHT22;11982;50.810;4.442;2022-11-14T14:48:14;7.60;99.90
23609;DHT22;11982;50.810;4.442;2022-11-14T14:50:41;7.60;99.90
23609;DHT22;11982;50.810;4.442;2022-11-14T14:53:35;7.60;99.90
23609;DHT22;11982;50.810;4.442;2022-11-14T14:56:12;7.90;99.90
23609;DHT22;11982;50.810;4.442;2022-11-14T14:58:41;8.00;99.90
23609;DHT22;11982;50.810;4.442;2022-11-14T15:01:12;8.10;99.90
23609;DHT22;11982;50.810;4.442;2022-11-14T15:03:45;8.00;99.90
23609;DHT22;11982;50.810;4.442;2022-11-14T15:11:32;7.60;99.90
23609;DHT22;11982;50.810;4.442;2022-11-14T15:13:59;7.50;99.90
23609;DHT22;11982;50.810;4.442;2022-11-14T15:16:26;7.40;99.90
23609;DHT22;11982;50.810;4.442;2022-11-14T15:18:55;7.40;99.90
23609;DHT22;11982;50.810;4.442;2022-11-14T15:21:26;7.60;99.90
23609;DHT22;11982;50.810;4.442;2022-11-14T15:26:38;7.60;99.90
23609;DHT22;11982;50.810;4.442;2022-11-14T15:29:23;7.80;99.90
23609;DHT22;11982;50.810;4.442;2022-11-14T15:31:58;7.60;99.90
23609;DHT22;11982;50.810;4.442;2022-11-14T15:34:32;7.60;99.90
23609;DHT22;11982;50.810;4.442;2022-11-14T15:37:18;7.70;99.90
23609;DHT22;11982;50.810;4.442;2022-11-14T15:39:45;7.70;99.90
23609;DHT22;11982;50.810;4.442;2022-11-14T15:44:49;7.70;99.90
23609;DHT22;11982;50.810;4.442;2022-11-14T15:47:46;7.50;99.90
23609;DHT22;11982;50.810;4.442;2022-11-14T15:52:48;7.30;99.90
23609;DHT22;11982;50.810;4.442;2022-11-14T15:55:17;7.20;99.90
23609;DHT22;11982;50.810;4.442;2022-11-14T15:57:43;7.20;99.90
23609;DHT22;11982;50.810;4.442;2022-11-14T16:00:16;7.10;99.90
23609;DHT22;11982;50.810;4.442;2022-11-14T16:02:55;7.10;99.90
23609;DHT22;11982;50.810;4.442;2022-11-14T16:05:27;7.20;99.90
23609;DHT22;11982;50.810;4.442;2022-11-14T16:07:53;7.20;99.90
23609;DHT22;11982;50.810;4.442;2022-11-14T16:10:21;7.30;99.90
23609;DHT22;11982;50.810;4.442;2022-11-14T16:12:47;7.20;99.90
23609;DHT22;11982;50.810;4.442;2022-11-14T16:15:14;7.40;99.90
23609;DHT22;11982;50.810;4.442;2022-11-14T16:17:42;7.30;99.90
23609;DHT22;11982;50.810;4.442;2022-11-14T16:20:20;7.20;99.90
23609;DHT22;11982;50.810;4.442;2022-11-14T16:22:47;7.20;99.90
23609;DHT22;11982;50.810;4.442;2022-11-14T16:25:18;7.20;99.90
23609;DHT22;11982;50.810;4.442;2022-11-14T16:27:44;7.20;99.90
23609;DHT22;11982;50.810;4.442;2022-11-14T16:30:12;7.20;99.90
23609;DHT22;11982;50.810;4.442;2022-11-14T16:32:38;7.30;99.90
23609;DHT22;11982;50.810;4.442;2022-11-14T16:35:08;7.20;99.90
23609;DHT22;11982;50.810;4.442;2022-11-14T16:37:36;7.20;99.90
23609;DHT22;11982;50.810;4.442;2022-11-14T16:40:02;7.20;99.90
23609;DHT22;11982;50.810;4.442;2022-11-14T16:42:28;7.30;99.90
23609;DHT22;11982;50.810;4.442;2022-11-14T16:44:59;7.60;99.90
23609;DHT22;11982;50.810;4.442;2022-11-14T16:47:26;7.60;99.90
23609;DHT22;11982;50.810;4.442;2022-11-14T16:49:51;7.60;99.90
23609;DHT22;11982;50.810;4.442;2022-11-14T16:52:17;7.60;99.90
23609;DHT22;11982;50.810;4.442;2022-11-14T16:54:44;7.70;99.90
23609;DHT22;11982;50.810;4.442;2022-11-14T16:57:10;7.90;99.90
23609;DHT22;11982;50.810;4.442;2022-11-14T16:59:36;7.90;99.90
23609;DHT22;11982;50.810;4.442;2022-11-14T17:02:02;7.70;99.90
23609;DHT22;11982;50.810;4.442;2022-11-14T17:04:28;7.60;99.90
23609;DHT22;11982;50.810;4.442;2022-11-14T17:06:53;7.80;99.90
23609;DHT22;11982;50.810;4.442;2022-11-14T17:09:19;7.70;99.90
23609;DHT22;11982;50.810;4.442;2022-11-14T17:11:44;7.60;99.90
23609;DHT22;11982;50.810;4.442;2022-11-14T17:14:10;7.60;99.90
23609;DHT22;11982;50.810;4.442;2022-11-14T17:16:36;7.60;99.90
23609;DHT22;11982;50.810;4.442;2022-11-14T17:19:02;7.50;99.90
23609;DHT22;11982;50.810;4.442;2022-11-14T17:21:28;7.50;99.90
23609;DHT22;11982;50.810;4.442;2022-11-14T17:23:59;7.50;99.90
23609;DHT22;11982;50.810;4.442;2022-11-14T17:26:26;7.50;99.90
23609;DHT22;11982;50.810;4.442;2022-11-14T17:28:51;7.50;99.90
23609;DHT22;11982;50.810;4.442;2022-11-14T17:31:17;7.60;99.90
23609;DHT22;11982;50.810;4.442;2022-11-14T17:33:43;7.70;99.90
23609;DHT22;11982;50.810;4.442;2022-11-14T17:36:14;7.80;99.90
23609;DHT22;11982;50.810;4.442;2022-11-14T17:38:39;7.80;99.90
23609;DHT22;11982;50.810;4.442;2022-11-14T17:41:05;7.80;99.90
23609;DHT22;11982;50.810;4.442;2022-11-14T17:43:32;7.70;99.90
23609;DHT22;11982;50.810;4.442;2022-11-14T17:45:58;7.80;99.90
23609;DHT22;11982;50.810;4.442;2022-11-14T17:48:23;7.70;99.90
23609;DHT22;11982;50.810;4.442;2022-11-14T17:50:50;7.60;99.90
23609;DHT22;11982;50.810;4.442;2022-11-14T17:53:16;7.70;99.90
23609;DHT22;11982;50.810;4.442;2022-11-14T17:55:42;7.70;99.90
23609;DHT22;11982;50.810;4.442;2022-11-14T17:58:07;7.60;99.90